sensor_id;sensor_type;location;lat;lon;timestamp;P1;durP1;ratioP1;P2;durP2;ratioP2
41799;SDS011;27468;47.460;19.034;2023-07-24T00:00:20;6.00;;;4.53;;
41799;SDS011;27468;47.460;19.034;2023-07-24T00:02:46;5.80;;;4.20;;
41799;SDS011;27468;47.460;19.034;2023-07-24T00:05:11;7.32;;;5.07;;
41799;SDS011;27468;47.460;19.034;2023-07-24T00:07:36;5.88;;;4.55;;
41799;SDS011;27468;47.460;19.034;2023-07-24T00:10:02;7.20;;;4.97;;
41799;SDS011;27468;47.460;19.034;2023-07-24T00:12:28;6.53;;;4.57;;
41799;SDS011;27468;47.460;19.034;2023-07-24T00:14:54;6.82;;;4.43;;
41799;SDS011;27468;47.460;19.034;2023-07-24T00:17:19;6.18;;;4.50;;
41799;SDS011;27468;47.460;19.034;2023-07-24T00:19:44;6.18;;;4.43;;
41799;SDS011;27468;47.460;19.034;2023-07-24T00:22:10;5.78;;;4.45;;
41799;SDS011;27468;47.460;19.034;2023-07-24T00:24:35;5.57;;;4.70;;
41799;SDS011;27468;47.460;19.034;2023-07-24T00:27:01;9.38;;;4.88;;
41799;SDS011;27468;47.460;19.034;2023-07-24T00:29:26;7.00;;;4.70;;
41799;SDS011;27468;47.460;19.034;2023-07-24T00:31:52;5.88;;;4.03;;
41799;SDS011;27468;47.460;19.034;2023-07-24T00:34:17;6.50;;;4.70;;
41799;SDS011;27468;47.460;19.034;2023-07-24T00:36:43;5.78;;;4.57;;
41799;SDS011;27468;47.460;19.034;2023-07-24T00:39:08;6.82;;;4.63;;
41799;SDS011;27468;47.460;19.034;2023-07-24T00:41:33;6.70;;;5.13;;
41799;SDS011;27468;47.460;19.034;2023-07-24T00:43:59;7.75;;;4.90;;
41799;SDS011;27468;47.460;19.034;2023-07-24T00:46:24;7.70;;;5.15;;
41799;SDS011;27468;47.460;19.034;2023-07-24T00:48:50;8.15;;;4.85;;
41799;SDS011;27468;47.460;19.034;2023-07-24T00:51:16;8.40;;;5.20;;
41799;SDS011;27468;47.460;19.034;2023-07-24T00:53:42;9.52;;;5.28;;
41799;SDS011;27468;47.460;19.034;2023-07-24T00:56:08;8.25;;;5.13;;
41799;SDS011;27468;47.460;19.034;2023-07-24T00:58:35;7.10;;;5.00;;
41799;SDS011;27468;47.460;19.034;2023-07-24T01:01:02;6.70;;;4.93;;
41799;SDS011;27468;47.460;19.034;2023-07-24T01:03:31;7.40;;;5.30;;
41799;SDS011;27468;47.460;19.034;2023-07-24T01:05:59;7.40;;;5.15;;
41799;SDS011;27468;47.460;19.034;2023-07-24T01:08:26;7.93;;;4.93;;
41799;SDS011;27468;47.460;19.034;2023-07-24T01:10:52;6.57;;;4.88;;
41799;SDS011;27468;47.460;19.034;2023-07-24T01:13:22;7.70;;;4.72;;
41799;SDS011;27468;47.460;19.034;2023-07-24T01:18:22;7.32;;;4.70;;
41799;SDS011;27468;47.460;19.034;2023-07-24T01:20:53;6.40;;;5.13;;
41799;SDS011;27468;47.460;19.034;2023-07-24T01:25:53;6.30;;;4.45;;
41799;SDS011;27468;47.460;19.034;2023-07-24T01:28:21;7.18;;;4.88;;
41799;SDS011;27468;47.460;19.034;2023-07-24T01:30:46;6.45;;;4.70;;
41799;SDS011;27468;47.460;19.034;2023-07-24T01:33:11;6.80;;;4.68;;
41799;SDS011;27468;47.460;19.034;2023-07-24T01:35:38;7.25;;;4.60;;
41799;SDS011;27468;47.460;19.034;2023-07-24T01:38:03;6.82;;;4.70;;
41799;SDS011;27468;47.460;19.034;2023-07-24T01:40:29;8.80;;;5.18;;
41799;SDS011;27468;47.460;19.034;2023-07-24T01:42:56;7.47;;;5.00;;
41799;SDS011;27468;47.460;19.034;2023-07-24T01:45:24;7.32;;;5.20;;
41799;SDS011;27468;47.460;19.034;2023-07-24T01:47:49;6.93;;;4.90;;
41799;SDS011;27468;47.460;19.034;2023-07-24T01:50:15;7.07;;;4.97;;
41799;SDS011;27468;47.460;19.034;2023-07-24T01:52:40;7.05;;;4.80;;
41799;SDS011;27468;47.460;19.034;2023-07-24T01:55:15;6.95;;;5.07;;
41799;SDS011;27468;47.460;19.034;2023-07-24T01:57:40;7.75;;;5.00;;
41799;SDS011;27468;47.460;19.034;2023-07-24T02:00:06;8.10;;;5.38;;
41799;SDS011;27468;47.460;19.034;2023-07-24T02:02:32;7.45;;;4.85;;
41799;SDS011;27468;47.460;19.034;2023-07-24T02:04:57;7.82;;;5.00;;
41799;SDS011;27468;47.460;19.034;2023-07-24T02:07:23;6.03;;;4.85;;
41799;SDS011;27468;47.460;19.034;2023-07-24T02:09:48;7.53;;;5.30;;
41799;SDS011;27468;47.460;19.034;2023-07-24T02:12:14;7.22;;;5.43;;
41799;SDS011;27468;47.460;19.034;2023-07-24T02:14:39;7.40;;;5.10;;
41799;SDS011;27468;47.460;19.034;2023-07-24T02:17:04;6.93;;;4.90;;
41799;SDS011;27468;47.460;19.034;2023-07-24T02:19:30;6.93;;;5.07;;
41799;SDS011;27468;47.460;19.034;2023-07-24T02:21:55;7.78;;;4.35;;
41799;SDS011;27468;47.460;19.034;2023-07-24T02:24:21;8.43;;;5.13;;
41799;SDS011;27468;47.460;19.034;2023-07-24T02:26:46;8.00;;;5.20;;
41799;SDS011;27468;47.460;19.034;2023-07-24T02:29:11;6.82;;;4.88;;
41799;SDS011;27468;47.460;19.034;2023-07-24T02:31:37;10.55;;;5.07;;
41799;SDS011;27468;47.460;19.034;2023-07-24T02:34:02;6.82;;;5.13;;
41799;SDS011;27468;47.460;19.034;2023-07-24T02:36:28;7.80;;;5.03;;
41799;SDS011;27468;47.460;19.034;2023-07-24T02:38:53;7.35;;;5.18;;
41799;SDS011;27468;47.460;19.034;2023-07-24T02:41:19;7.75;;;5.30;;
41799;SDS011;27468;47.460;19.034;2023-07-24T02:43:44;7.65;;;5.20;;
41799;SDS011;27468;47.460;19.034;2023-07-24T02:46:09;7.38;;;5.35;;
41799;SDS011;27468;47.460;19.034;2023-07-24T02:48:35;9.40;;;5.20;;
41799;SDS011;27468;47.460;19.034;2023-07-24T02:51:00;7.57;;;5.03;;
41799;SDS011;27468;47.460;19.034;2023-07-24T02:53:26;8.40;;;5.13;;
41799;SDS011;27468;47.460;19.034;2023-07-24T02:55:51;8.98;;;5.07;;
41799;SDS011;27468;47.460;19.034;2023-07-24T02:58:16;8.05;;;4.93;;
41799;SDS011;27468;47.460;19.034;2023-07-24T03:00:42;7.75;;;5.28;;
41799;SDS011;27468;47.460;19.034;2023-07-24T03:03:07;9.73;;;5.90;;
41799;SDS011;27468;47.460;19.034;2023-07-24T03:05:36;8.05;;;5.30;;
41799;SDS011;27468;47.460;19.034;2023-07-24T03:08:01;6.82;;;5.07;;
41799;SDS011;27468;47.460;19.034;2023-07-24T03:10:27;7.43;;;5.00;;
41799;SDS011;27468;47.460;19.034;2023-07-24T03:12:52;8.55;;;5.30;;
41799;SDS011;27468;47.460;19.034;2023-07-24T03:15:18;7.63;;;5.78;;
41799;SDS011;27468;47.460;19.034;2023-07-24T03:17:44;9.63;;;5.40;;
41799;SDS011;27468;47.460;19.034;2023-07-24T03:20:14;7.38;;;5.05;;
41799;SDS011;27468;47.460;19.034;2023-07-24T03:22:41;7.35;;;5.55;;
41799;SDS011;27468;47.460;19.034;2023-07-24T03:25:07;8.75;;;5.57;;
41799;SDS011;27468;47.460;19.034;2023-07-24T03:27:33;6.78;;;5.22;;
41799;SDS011;27468;47.460;19.034;2023-07-24T03:29:59;8.85;;;5.95;;
41799;SDS011;27468;47.460;19.034;2023-07-24T03:32:24;8.88;;;5.38;;
41799;SDS011;27468;47.460;19.034;2023-07-24T03:34:50;6.50;;;5.18;;
41799;SDS011;27468;47.460;19.034;2023-07-24T03:37:15;7.03;;;5.47;;
41799;SDS011;27468;47.460;19.034;2023-07-24T03:39:40;9.10;;;6.15;;
41799;SDS011;27468;47.460;19.034;2023-07-24T03:42:06;7.47;;;5.57;;
41799;SDS011;27468;47.460;19.034;2023-07-24T03:44:31;7.22;;;5.78;;
41799;SDS011;27468;47.460;19.034;2023-07-24T03:46:57;8.27;;;5.63;;
41799;SDS011;27468;47.460;19.034;2023-07-24T03:49:22;7.50;;;5.90;;
41799;SDS011;27468;47.460;19.034;2023-07-24T03:51:48;8.60;;;5.55;;
41799;SDS011;27468;47.460;19.034;2023-07-24T03:54:13;7.82;;;6.40;;
41799;SDS011;27468;47.460;19.034;2023-07-24T03:56:39;8.13;;;5.45;;
41799;SDS011;27468;47.460;19.034;2023-07-24T03:59:05;7.47;;;5.75;;
41799;SDS011;27468;47.460;19.034;2023-07-24T04:01:31;8.27;;;5.85;;
41799;SDS011;27468;47.460;19.034;2023-07-24T04:03:57;9.00;;;5.90;;
41799;SDS011;27468;47.460;19.034;2023-07-24T04:06:23;8.40;;;5.80;;
41799;SDS011;27468;47.460;19.034;2023-07-24T04:08:49;7.55;;;5.72;;
41799;SDS011;27468;47.460;19.034;2023-07-24T04:11:14;9.82;;;6.20;;
41799;SDS011;27468;47.460;19.034;2023-07-24T04:13:40;8.00;;;5.70;;
41799;SDS011;27468;47.460;19.034;2023-07-24T04:16:05;8.48;;;5.60;;
41799;SDS011;27468;47.460;19.034;2023-07-24T04:18:31;8.60;;;5.97;;
41799;SDS011;27468;47.460;19.034;2023-07-24T04:20:56;7.70;;;5.60;;
41799;SDS011;27468;47.460;19.034;2023-07-24T04:23:22;9.43;;;6.18;;
41799;SDS011;27468;47.460;19.034;2023-07-24T04:25:49;8.23;;;5.50;;
41799;SDS011;27468;47.460;19.034;2023-07-24T04:28:14;9.73;;;5.70;;
41799;SDS011;27468;47.460;19.034;2023-07-24T04:30:40;9.38;;;5.60;;
41799;SDS011;27468;47.460;19.034;2023-07-24T04:33:05;6.85;;;5.88;;
41799;SDS011;27468;47.460;19.034;2023-07-24T04:35:31;8.48;;;5.90;;
41799;SDS011;27468;47.460;19.034;2023-07-24T04:37:56;9.48;;;6.20;;
41799;SDS011;27468;47.460;19.034;2023-07-24T04:40:22;8.85;;;5.68;;
41799;SDS011;27468;47.460;19.034;2023-07-24T04:42:48;8.57;;;6.00;;
41799;SDS011;27468;47.460;19.034;2023-07-24T04:45:14;11.02;;;6.25;;
41799;SDS011;27468;47.460;19.034;2023-07-24T04:47:39;9.82;;;5.60;;
41799;SDS011;27468;47.460;19.034;2023-07-24T04:50:05;9.13;;;5.68;;
41799;SDS011;27468;47.460;19.034;2023-07-24T04:52:30;7.88;;;6.40;;
41799;SDS011;27468;47.460;19.034;2023-07-24T04:54:56;7.68;;;5.93;;
41799;SDS011;27468;47.460;19.034;2023-07-24T04:57:21;8.52;;;6.15;;
41799;SDS011;27468;47.460;19.034;2023-07-24T04:59:47;9.55;;;6.57;;
41799;SDS011;27468;47.460;19.034;2023-07-24T05:02:12;6.95;;;5.68;;
41799;SDS011;27468;47.460;19.034;2023-07-24T05:04:38;7.78;;;6.22;;
41799;SDS011;27468;47.460;19.034;2023-07-24T05:07:03;9.60;;;5.80;;
41799;SDS011;27468;47.460;19.034;2023-07-24T05:09:28;10.38;;;6.03;;
41799;SDS011;27468;47.460;19.034;2023-07-24T05:11:54;7.78;;;5.57;;
41799;SDS011;27468;47.460;19.034;2023-07-24T05:14:19;8.68;;;5.78;;
41799;SDS011;27468;47.460;19.034;2023-07-24T05:16:45;6.85;;;5.85;;
41799;SDS011;27468;47.460;19.034;2023-07-24T05:19:10;8.07;;;6.20;;
41799;SDS011;27468;47.460;19.034;2023-07-24T05:21:36;7.75;;;6.15;;
41799;SDS011;27468;47.460;19.034;2023-07-24T05:24:01;9.20;;;6.18;;
41799;SDS011;27468;47.460;19.034;2023-07-24T05:26:26;7.30;;;5.70;;
41799;SDS011;27468;47.460;19.034;2023-07-24T05:28:52;7.75;;;5.80;;
41799;SDS011;27468;47.460;19.034;2023-07-24T05:31:18;7.40;;;5.85;;
41799;SDS011;27468;47.460;19.034;2023-07-24T05:33:43;7.63;;;6.20;;
41799;SDS011;27468;47.460;19.034;2023-07-24T05:36:09;9.75;;;6.45;;
41799;SDS011;27468;47.460;19.034;2023-07-24T05:38:34;10.60;;;6.97;;
41799;SDS011;27468;47.460;19.034;2023-07-24T05:41:03;12.07;;;6.70;;
41799;SDS011;27468;47.460;19.034;2023-07-24T05:43:29;8.25;;;6.68;;
41799;SDS011;27468;47.460;19.034;2023-07-24T05:45:55;7.85;;;6.00;;
41799;SDS011;27468;47.460;19.034;2023-07-24T05:48:22;8.63;;;7.07;;
41799;SDS011;27468;47.460;19.034;2023-07-24T05:50:49;9.32;;;6.95;;
41799;SDS011;27468;47.460;19.034;2023-07-24T05:53:15;10.23;;;6.93;;
41799;SDS011;27468;47.460;19.034;2023-07-24T05:55:41;8.38;;;6.80;;
41799;SDS011;27468;47.460;19.034;2023-07-24T05:58:07;9.15;;;6.50;;
41799;SDS011;27468;47.460;19.034;2023-07-24T06:00:33;9.20;;;6.70;;
41799;SDS011;27468;47.460;19.034;2023-07-24T06:02:59;9.20;;;7.00;;
41799;SDS011;27468;47.460;19.034;2023-07-24T06:05:24;9.40;;;7.53;;
41799;SDS011;27468;47.460;19.034;2023-07-24T06:07:49;7.75;;;6.93;;
41799;SDS011;27468;47.460;19.034;2023-07-24T06:10:15;11.13;;;7.60;;
41799;SDS011;27468;47.460;19.034;2023-07-24T06:12:40;12.10;;;7.50;;
41799;SDS011;27468;47.460;19.034;2023-07-24T06:15:06;12.43;;;7.20;;
41799;SDS011;27468;47.460;19.034;2023-07-24T06:17:32;10.77;;;7.60;;
41799;SDS011;27468;47.460;19.034;2023-07-24T06:19:57;11.63;;;7.60;;
41799;SDS011;27468;47.460;19.034;2023-07-24T06:22:23;11.40;;;7.00;;
41799;SDS011;27468;47.460;19.034;2023-07-24T06:24:49;11.57;;;7.88;;
41799;SDS011;27468;47.460;19.034;2023-07-24T06:27:15;8.15;;;6.88;;
41799;SDS011;27468;47.460;19.034;2023-07-24T06:29:40;8.48;;;7.30;;
41799;SDS011;27468;47.460;19.034;2023-07-24T06:32:09;10.20;;;7.35;;
41799;SDS011;27468;47.460;19.034;2023-07-24T06:34:34;10.18;;;7.00;;
41799;SDS011;27468;47.460;19.034;2023-07-24T06:36:59;10.55;;;6.53;;
41799;SDS011;27468;47.460;19.034;2023-07-24T06:39:25;10.52;;;7.60;;
41799;SDS011;27468;47.460;19.034;2023-07-24T06:41:54;9.55;;;6.22;;
41799;SDS011;27468;47.460;19.034;2023-07-24T06:44:19;9.02;;;7.10;;
41799;SDS011;27468;47.460;19.034;2023-07-24T06:46:45;9.63;;;6.82;;
41799;SDS011;27468;47.460;19.034;2023-07-24T06:49:10;9.20;;;6.38;;
41799;SDS011;27468;47.460;19.034;2023-07-24T06:51:36;9.18;;;6.40;;
41799;SDS011;27468;47.460;19.034;2023-07-24T06:54:02;11.13;;;6.10;;
41799;SDS011;27468;47.460;19.034;2023-07-24T06:56:27;8.85;;;6.30;;
41799;SDS011;27468;47.460;19.034;2023-07-24T06:58:53;8.88;;;6.63;;
41799;SDS011;27468;47.460;19.034;2023-07-24T07:01:18;11.50;;;6.28;;
41799;SDS011;27468;47.460;19.034;2023-07-24T07:03:44;8.40;;;6.20;;
41799;SDS011;27468;47.460;19.034;2023-07-24T07:06:09;8.43;;;6.25;;
41799;SDS011;27468;47.460;19.034;2023-07-24T07:08:36;9.32;;;5.65;;
41799;SDS011;27468;47.460;19.034;2023-07-24T07:11:01;9.48;;;6.53;;
41799;SDS011;27468;47.460;19.034;2023-07-24T07:13:27;9.48;;;6.45;;
41799;SDS011;27468;47.460;19.034;2023-07-24T07:15:53;7.53;;;5.93;;
41799;SDS011;27468;47.460;19.034;2023-07-24T07:18:18;7.93;;;5.82;;
41799;SDS011;27468;47.460;19.034;2023-07-24T07:20:45;7.50;;;5.70;;
41799;SDS011;27468;47.460;19.034;2023-07-24T07:23:13;8.13;;;5.93;;
41799;SDS011;27468;47.460;19.034;2023-07-24T07:25:39;7.07;;;5.50;;
41799;SDS011;27468;47.460;19.034;2023-07-24T07:28:05;8.20;;;5.75;;
41799;SDS011;27468;47.460;19.034;2023-07-24T07:30:30;9.07;;;6.50;;
41799;SDS011;27468;47.460;19.034;2023-07-24T07:32:56;8.10;;;5.68;;
41799;SDS011;27468;47.460;19.034;2023-07-24T07:35:22;9.23;;;5.70;;
41799;SDS011;27468;47.460;19.034;2023-07-24T07:37:47;8.70;;;6.57;;
41799;SDS011;27468;47.460;19.034;2023-07-24T07:40:12;10.43;;;6.03;;
41799;SDS011;27468;47.460;19.034;2023-07-24T07:42:38;9.98;;;6.70;;
41799;SDS011;27468;47.460;19.034;2023-07-24T07:45:03;9.25;;;6.53;;
41799;SDS011;27468;47.460;19.034;2023-07-24T07:47:29;9.35;;;6.72;;
41799;SDS011;27468;47.460;19.034;2023-07-24T07:49:55;7.95;;;6.47;;
41799;SDS011;27468;47.460;19.034;2023-07-24T07:52:20;10.02;;;6.47;;
41799;SDS011;27468;47.460;19.034;2023-07-24T07:54:47;8.00;;;6.45;;
41799;SDS011;27468;47.460;19.034;2023-07-24T07:57:15;8.50;;;6.43;;
41799;SDS011;27468;47.460;19.034;2023-07-24T07:59:41;9.73;;;6.32;;
41799;SDS011;27468;47.460;19.034;2023-07-24T08:02:07;8.85;;;6.00;;
41799;SDS011;27468;47.460;19.034;2023-07-24T08:04:33;8.27;;;6.72;;
41799;SDS011;27468;47.460;19.034;2023-07-24T08:06:58;8.73;;;6.60;;
41799;SDS011;27468;47.460;19.034;2023-07-24T08:09:23;9.68;;;6.22;;
41799;SDS011;27468;47.460;19.034;2023-07-24T08:11:49;9.85;;;6.32;;
41799;SDS011;27468;47.460;19.034;2023-07-24T08:14:16;11.55;;;6.97;;
41799;SDS011;27468;47.460;19.034;2023-07-24T08:16:42;8.88;;;6.07;;
41799;SDS011;27468;47.460;19.034;2023-07-24T08:19:07;10.07;;;6.90;;
41799;SDS011;27468;47.460;19.034;2023-07-24T08:21:32;11.25;;;6.40;;
41799;SDS011;27468;47.460;19.034;2023-07-24T08:23:58;9.23;;;6.28;;
41799;SDS011;27468;47.460;19.034;2023-07-24T08:26:25;9.65;;;6.15;;
41799;SDS011;27468;47.460;19.034;2023-07-24T08:28:51;10.25;;;6.40;;
41799;SDS011;27468;47.460;19.034;2023-07-24T08:31:17;8.65;;;6.15;;
41799;SDS011;27468;47.460;19.034;2023-07-24T08:33:42;9.77;;;6.50;;
41799;SDS011;27468;47.460;19.034;2023-07-24T08:36:08;9.20;;;6.32;;
41799;SDS011;27468;47.460;19.034;2023-07-24T08:38:34;8.38;;;6.00;;
41799;SDS011;27468;47.460;19.034;2023-07-24T08:41:21;10.90;;;6.43;;
41799;SDS011;27468;47.460;19.034;2023-07-24T08:43:46;10.80;;;6.90;;
41799;SDS011;27468;47.460;19.034;2023-07-24T08:46:11;8.20;;;5.90;;
41799;SDS011;27468;47.460;19.034;2023-07-24T08:48:41;8.57;;;6.25;;
41799;SDS011;27468;47.460;19.034;2023-07-24T08:51:08;10.10;;;6.40;;
41799;SDS011;27468;47.460;19.034;2023-07-24T08:53:35;8.05;;;5.88;;
41799;SDS011;27468;47.460;19.034;2023-07-24T08:56:02;8.50;;;5.93;;
41799;SDS011;27468;47.460;19.034;2023-07-24T08:58:28;10.30;;;6.35;;
41799;SDS011;27468;47.460;19.034;2023-07-24T09:00:55;10.60;;;6.80;;
41799;SDS011;27468;47.460;19.034;2023-07-24T09:03:21;9.07;;;6.38;;
41799;SDS011;27468;47.460;19.034;2023-07-24T09:05:46;11.70;;;6.55;;
41799;SDS011;27468;47.460;19.034;2023-07-24T09:08:12;8.38;;;6.07;;
41799;SDS011;27468;47.460;19.034;2023-07-24T09:10:38;10.05;;;5.95;;
41799;SDS011;27468;47.460;19.034;2023-07-24T09:13:03;10.23;;;5.85;;
41799;SDS011;27468;47.460;19.034;2023-07-24T09:15:38;11.23;;;6.40;;
41799;SDS011;27468;47.460;19.034;2023-07-24T09:18:08;9.90;;;6.18;;
41799;SDS011;27468;47.460;19.034;2023-07-24T09:20:38;10.55;;;6.20;;
41799;SDS011;27468;47.460;19.034;2023-07-24T09:23:04;11.05;;;6.60;;
41799;SDS011;27468;47.460;19.034;2023-07-24T09:25:30;11.00;;;6.38;;
41799;SDS011;27468;47.460;19.034;2023-07-24T09:27:57;9.70;;;6.15;;
41799;SDS011;27468;47.460;19.034;2023-07-24T09:30:23;9.88;;;6.03;;
41799;SDS011;27468;47.460;19.034;2023-07-24T09:32:55;10.88;;;6.65;;
41799;SDS011;27468;47.460;19.034;2023-07-24T09:35:21;8.50;;;6.03;;
41799;SDS011;27468;47.460;19.034;2023-07-24T09:38:01;10.65;;;6.05;;
41799;SDS011;27468;47.460;19.034;2023-07-24T09:40:41;9.40;;;5.95;;
41799;SDS011;27468;47.460;19.034;2023-07-24T09:43:14;9.02;;;5.93;;
41799;SDS011;27468;47.460;19.034;2023-07-24T09:45:44;9.07;;;5.80;;
41799;SDS011;27468;47.460;19.034;2023-07-24T09:48:11;9.43;;;6.15;;
41799;SDS011;27468;47.460;19.034;2023-07-24T09:50:40;10.35;;;6.28;;
41799;SDS011;27468;47.460;19.034;2023-07-24T09:53:18;10.60;;;6.40;;
41799;SDS011;27468;47.460;19.034;2023-07-24T09:55:49;10.88;;;6.65;;
41799;SDS011;27468;47.460;19.034;2023-07-24T09:58:20;11.35;;;7.03;;
41799;SDS011;27468;47.460;19.034;2023-07-24T10:00:47;11.02;;;6.60;;
41799;SDS011;27468;47.460;19.034;2023-07-24T10:03:14;9.57;;;6.65;;
41799;SDS011;27468;47.460;19.034;2023-07-24T10:05:41;11.75;;;6.93;;
41799;SDS011;27468;47.460;19.034;2023-07-24T10:08:08;11.85;;;7.28;;
41799;SDS011;27468;47.460;19.034;2023-07-24T10:10:35;11.15;;;6.53;;
41799;SDS011;27468;47.460;19.034;2023-07-24T10:13:01;12.65;;;6.88;;
41799;SDS011;27468;47.460;19.034;2023-07-24T10:15:26;11.57;;;6.90;;
41799;SDS011;27468;47.460;19.034;2023-07-24T10:18:00;12.02;;;6.70;;
41799;SDS011;27468;47.460;19.034;2023-07-24T10:20:32;10.80;;;7.15;;
41799;SDS011;27468;47.460;19.034;2023-07-24T10:23:05;13.50;;;8.02;;
41799;SDS011;27468;47.460;19.034;2023-07-24T10:25:32;10.15;;;6.78;;
41799;SDS011;27468;47.460;19.034;2023-07-24T10:28:06;13.13;;;7.57;;
41799;SDS011;27468;47.460;19.034;2023-07-24T10:30:35;14.38;;;7.35;;
41799;SDS011;27468;47.460;19.034;2023-07-24T10:33:20;13.02;;;7.40;;
41799;SDS011;27468;47.460;19.034;2023-07-24T10:36:03;11.93;;;7.50;;
41799;SDS011;27468;47.460;19.034;2023-07-24T10:38:38;9.95;;;6.88;;
41799;SDS011;27468;47.460;19.034;2023-07-24T10:41:05;15.45;;;6.88;;
41799;SDS011;27468;47.460;19.034;2023-07-24T10:43:41;12.57;;;8.00;;
41799;SDS011;27468;47.460;19.034;2023-07-24T10:46:12;10.93;;;6.82;;
41799;SDS011;27468;47.460;19.034;2023-07-24T10:48:41;11.23;;;6.50;;
41799;SDS011;27468;47.460;19.034;2023-07-24T10:51:09;11.02;;;6.93;;
41799;SDS011;27468;47.460;19.034;2023-07-24T10:53:35;10.57;;;6.47;;
41799;SDS011;27468;47.460;19.034;2023-07-24T10:56:06;11.27;;;6.82;;
41799;SDS011;27468;47.460;19.034;2023-07-24T10:58:32;11.80;;;6.65;;
41799;SDS011;27468;47.460;19.034;2023-07-24T11:01:00;9.15;;;5.85;;
41799;SDS011;27468;47.460;19.034;2023-07-24T11:03:29;10.60;;;6.40;;
41799;SDS011;27468;47.460;19.034;2023-07-24T11:05:56;10.30;;;6.22;;
41799;SDS011;27468;47.460;19.034;2023-07-24T11:08:22;10.00;;;6.63;;
41799;SDS011;27468;47.460;19.034;2023-07-24T11:10:49;10.55;;;6.35;;
41799;SDS011;27468;47.460;19.034;2023-07-24T11:13:22;10.43;;;6.80;;
41799;SDS011;27468;47.460;19.034;2023-07-24T11:15:52;11.00;;;6.43;;
41799;SDS011;27468;47.460;19.034;2023-07-24T11:18:18;11.07;;;6.38;;
41799;SDS011;27468;47.460;19.034;2023-07-24T11:20:48;11.88;;;6.80;;
41799;SDS011;27468;47.460;19.034;2023-07-24T11:23:21;10.82;;;6.00;;
41799;SDS011;27468;47.460;19.034;2023-07-24T11:25:47;13.50;;;6.40;;
41799;SDS011;27468;47.460;19.034;2023-07-24T11:28:15;12.30;;;6.60;;
41799;SDS011;27468;47.460;19.034;2023-07-24T11:30:41;9.95;;;6.63;;
41799;SDS011;27468;47.460;19.034;2023-07-24T11:33:10;9.70;;;6.47;;
41799;SDS011;27468;47.460;19.034;2023-07-24T11:35:37;9.60;;;6.50;;
41799;SDS011;27468;47.460;19.034;2023-07-24T11:38:05;11.50;;;6.53;;
41799;SDS011;27468;47.460;19.034;2023-07-24T11:40:38;10.13;;;6.78;;
41799;SDS011;27468;47.460;19.034;2023-07-24T11:43:14;11.40;;;6.35;;
41799;SDS011;27468;47.460;19.034;2023-07-24T11:45:45;10.00;;;6.32;;
41799;SDS011;27468;47.460;19.034;2023-07-24T11:48:13;10.43;;;5.95;;
41799;SDS011;27468;47.460;19.034;2023-07-24T11:50:46;10.25;;;6.28;;
41799;SDS011;27468;47.460;19.034;2023-07-24T11:55:45;10.85;;;6.65;;
41799;SDS011;27468;47.460;19.034;2023-07-24T11:58:13;8.43;;;5.80;;
41799;SDS011;27468;47.460;19.034;2023-07-24T12:00:40;10.02;;;5.97;;
41799;SDS011;27468;47.460;19.034;2023-07-24T12:03:06;11.25;;;6.93;;
41799;SDS011;27468;47.460;19.034;2023-07-24T12:05:39;10.73;;;6.07;;
41799;SDS011;27468;47.460;19.034;2023-07-24T12:08:05;11.35;;;6.80;;
41799;SDS011;27468;47.460;19.034;2023-07-24T12:10:35;10.65;;;6.50;;
41799;SDS011;27468;47.460;19.034;2023-07-24T12:13:02;9.80;;;6.43;;
41799;SDS011;27468;47.460;19.034;2023-07-24T12:15:27;11.88;;;6.10;;
41799;SDS011;27468;47.460;19.034;2023-07-24T12:17:53;11.32;;;6.78;;
41799;SDS011;27468;47.460;19.034;2023-07-24T12:20:19;9.27;;;6.03;;
41799;SDS011;27468;47.460;19.034;2023-07-24T12:22:45;10.20;;;6.47;;
41799;SDS011;27468;47.460;19.034;2023-07-24T12:25:11;8.73;;;5.90;;
41799;SDS011;27468;47.460;19.034;2023-07-24T12:27:36;9.35;;;5.72;;
41799;SDS011;27468;47.460;19.034;2023-07-24T12:30:04;8.57;;;6.00;;
41799;SDS011;27468;47.460;19.034;2023-07-24T12:32:31;10.52;;;6.40;;
41799;SDS011;27468;47.460;19.034;2023-07-24T12:34:56;9.48;;;6.03;;
41799;SDS011;27468;47.460;19.034;2023-07-24T12:37:22;10.25;;;6.00;;
41799;SDS011;27468;47.460;19.034;2023-07-24T12:39:48;10.77;;;6.18;;
41799;SDS011;27468;47.460;19.034;2023-07-24T12:42:14;10.05;;;6.13;;
41799;SDS011;27468;47.460;19.034;2023-07-24T12:44:41;10.25;;;5.85;;
41799;SDS011;27468;47.460;19.034;2023-07-24T12:47:07;9.45;;;6.25;;
41799;SDS011;27468;47.460;19.034;2023-07-24T12:49:32;9.23;;;5.82;;
41799;SDS011;27468;47.460;19.034;2023-07-24T12:51:58;10.52;;;6.20;;
41799;SDS011;27468;47.460;19.034;2023-07-24T12:54:23;10.82;;;6.00;;
41799;SDS011;27468;47.460;19.034;2023-07-24T12:56:49;8.82;;;5.85;;
41799;SDS011;27468;47.460;19.034;2023-07-24T12:59:16;11.57;;;6.68;;
41799;SDS011;27468;47.460;19.034;2023-07-24T13:01:42;9.23;;;5.72;;
41799;SDS011;27468;47.460;19.034;2023-07-24T13:04:07;9.15;;;6.25;;
41799;SDS011;27468;47.460;19.034;2023-07-24T13:06:33;11.55;;;6.00;;
41799;SDS011;27468;47.460;19.034;2023-07-24T13:08:59;8.93;;;5.93;;
41799;SDS011;27468;47.460;19.034;2023-07-24T13:11:25;10.88;;;6.40;;
41799;SDS011;27468;47.460;19.034;2023-07-24T13:13:53;10.50;;;6.45;;
41799;SDS011;27468;47.460;19.034;2023-07-24T13:16:18;9.40;;;6.43;;
41799;SDS011;27468;47.460;19.034;2023-07-24T13:18:44;9.25;;;6.72;;
41799;SDS011;27468;47.460;19.034;2023-07-24T13:21:10;11.43;;;6.57;;
41799;SDS011;27468;47.460;19.034;2023-07-24T13:23:35;9.32;;;6.82;;
41799;SDS011;27468;47.460;19.034;2023-07-24T13:26:01;13.02;;;7.22;;
41799;SDS011;27468;47.460;19.034;2023-07-24T13:28:26;10.35;;;6.70;;
41799;SDS011;27468;47.460;19.034;2023-07-24T13:30:51;9.68;;;6.63;;
41799;SDS011;27468;47.460;19.034;2023-07-24T13:33:18;11.10;;;7.30;;
41799;SDS011;27468;47.460;19.034;2023-07-24T13:35:44;12.48;;;7.15;;
41799;SDS011;27468;47.460;19.034;2023-07-24T13:38:09;11.63;;;7.63;;
41799;SDS011;27468;47.460;19.034;2023-07-24T13:40:35;13.25;;;8.02;;
41799;SDS011;27468;47.460;19.034;2023-07-24T13:43:01;13.98;;;8.18;;
41799;SDS011;27468;47.460;19.034;2023-07-24T13:45:27;12.07;;;7.40;;
41799;SDS011;27468;47.460;19.034;2023-07-24T13:47:54;13.45;;;7.43;;
41799;SDS011;27468;47.460;19.034;2023-07-24T13:50:19;15.50;;;8.07;;
41799;SDS011;27468;47.460;19.034;2023-07-24T13:52:45;13.20;;;7.72;;
41799;SDS011;27468;47.460;19.034;2023-07-24T13:55:10;14.07;;;7.72;;
41799;SDS011;27468;47.460;19.034;2023-07-24T13:57:36;17.30;;;8.35;;
41799;SDS011;27468;47.460;19.034;2023-07-24T14:00:01;13.43;;;8.20;;
41799;SDS011;27468;47.460;19.034;2023-07-24T14:02:27;14.10;;;7.80;;
41799;SDS011;27468;47.460;19.034;2023-07-24T14:04:52;12.48;;;7.63;;
41799;SDS011;27468;47.460;19.034;2023-07-24T14:07:18;13.50;;;8.43;;
41799;SDS011;27468;47.460;19.034;2023-07-24T14:09:43;13.18;;;8.25;;
41799;SDS011;27468;47.460;19.034;2023-07-24T14:12:09;13.13;;;7.82;;
41799;SDS011;27468;47.460;19.034;2023-07-24T14:14:34;14.43;;;8.77;;
41799;SDS011;27468;47.460;19.034;2023-07-24T14:17:00;13.25;;;7.05;;
41799;SDS011;27468;47.460;19.034;2023-07-24T14:19:25;13.15;;;8.23;;
41799;SDS011;27468;47.460;19.034;2023-07-24T14:21:51;14.68;;;7.60;;
41799;SDS011;27468;47.460;19.034;2023-07-24T14:24:17;14.52;;;8.50;;
41799;SDS011;27468;47.460;19.034;2023-07-24T14:26:42;13.00;;;8.70;;
41799;SDS011;27468;47.460;19.034;2023-07-24T14:29:09;12.20;;;7.63;;
41799;SDS011;27468;47.460;19.034;2023-07-24T14:31:36;13.57;;;8.02;;
41799;SDS011;27468;47.460;19.034;2023-07-24T14:34:02;13.45;;;8.07;;